Weather at Aeródromo Requena El Rebollar

Public forecast

Using degrees Celsius for public forecast. Weather courtesy of forecast.io.

Closest aviation weather report (METAR) to Aeródromo Requena El Rebollar

Closest report is Valencia Airport, 25.6 nm (47.5 km) E. Retrieved 2021/06/21 08:30 UTC (15 minutes ago):

LEVC 210830Z 26013KT 230V290 9999 FEW035 26/12 Q1010 NOSIG

Closest aviation forecast (TAF) to Aeródromo Requena El Rebollar

Closest forecast is Valencia Airport, 25.6 nm (47.5 km) E. Retrieved 2021/06/21 06:27 UTC (2 hours ago):

TAF LEVC 210500Z 2106/2206 VRB05KT 9999 FEW040 TX32/2115Z TN19/2106Z BECMG 2108/2110 27010KT PROB40 TEMPO 2114/2120 14010KT